UZB3501 UZTT-UTAA
Flight info
| Callsign | UZB3501 |
|---|---|
| Flight time | 1h 33m |
| Altitude | 38000 |
| Route | KUFIM2C KUFIM L143 POGON/N0466F400 B114 BUROT BUR11A |
| Aircraft | A332/H-SDE3GHIJ2J3J5M1RVWXY/LB2D1 |
Departure
| Time | 2026-04-25 09:06 |
|---|---|
| Airport | Tashkent International Airport (UZTT) |
Arrival
| Time | 2026-04-25 10:39 |
|---|---|
| Airport | Ashgabat International Airport (UTAA) |
| Time | Latitude | Longitude | Altitude | Speed | Heading |
|---|---|---|---|---|---|
| 2026-04-25 08:50 | 41.26171 | 69.26883 | 1385 ft | 0 kts | 356° |
| 2026-04-25 08:53 | 41.26159 | 69.26884 | 1380 ft | 3 kts | 356° |
| 2026-04-25 08:53 | 41.26138 | 69.26886 | 1383 ft | 3 kts | 356° |
| 2026-04-25 08:53 | 41.26118 | 69.26888 | 1382 ft | 3 kts | 356° |
| 2026-04-25 08:54 | 41.26097 | 69.26890 | 1381 ft | 3 kts | 355° |
| 2026-04-25 08:54 | 41.26077 | 69.26891 | 1380 ft | 3 kts | 15° |
| 2026-04-25 08:54 | 41.26057 | 69.26882 | 1380 ft | 3 kts | 56° |
| 2026-04-25 08:54 | 41.26052 | 69.26870 | 1380 ft | 0 kts | 64° |
| 2026-04-25 08:57 | 41.26055 | 69.26880 | 1380 ft | 4 kts | 65° |
| 2026-04-25 08:57 | 41.26066 | 69.26927 | 1380 ft | 6 kts | 70° |
| 2026-04-25 08:58 | 41.26083 | 69.26984 | 1380 ft | 8 kts | 69° |
| 2026-04-25 08:58 | 41.26104 | 69.27056 | 1382 ft | 9 kts | 68° |
| 2026-04-25 08:58 | 41.26124 | 69.27135 | 1380 ft | 8 kts | 90° |
| 2026-04-25 08:58 | 41.26096 | 69.27202 | 1382 ft | 9 kts | 134° |
| 2026-04-25 08:59 | 41.26070 | 69.27271 | 1381 ft | 9 kts | 97° |
| 2026-04-25 08:59 | 41.26077 | 69.27358 | 1381 ft | 10 kts | 81° |
| 2026-04-25 08:59 | 41.26088 | 69.27457 | 1381 ft | 11 kts | 81° |
| 2026-04-25 08:59 | 41.26100 | 69.27568 | 1382 ft | 13 kts | 81° |
| 2026-04-25 09:00 | 41.26114 | 69.27690 | 1384 ft | 14 kts | 81° |
| 2026-04-25 09:00 | 41.26129 | 69.27824 | 1383 ft | 15 kts | 81° |
| 2026-04-25 09:00 | 41.26142 | 69.27944 | 1383 ft | 11 kts | 82° |
| 2026-04-25 09:00 | 41.26153 | 69.28048 | 1381 ft | 12 kts | 82° |
| 2026-04-25 09:01 | 41.26166 | 69.28165 | 1384 ft | 13 kts | 82° |
| 2026-04-25 09:01 | 41.26180 | 69.28294 | 1384 ft | 15 kts | 82° |
| 2026-04-25 09:01 | 41.26191 | 69.28426 | 1382 ft | 14 kts | 89° |
| 2026-04-25 09:01 | 41.26186 | 69.28560 | 1383 ft | 15 kts | 93° |
| 2026-04-25 09:02 | 41.26181 | 69.28688 | 1383 ft | 12 kts | 93° |
| 2026-04-25 09:02 | 41.26184 | 69.28807 | 1380 ft | 14 kts | 87° |
| 2026-04-25 09:02 | 41.26189 | 69.28938 | 1380 ft | 15 kts | 87° |
| 2026-04-25 09:02 | 41.26194 | 69.29082 | 1381 ft | 16 kts | 87° |
| 2026-04-25 09:03 | 41.26200 | 69.29235 | 1382 ft | 17 kts | 87° |
| 2026-04-25 09:03 | 41.26206 | 69.29399 | 1382 ft | 18 kts | 87° |
| 2026-04-25 09:03 | 41.26212 | 69.29563 | 1381 ft | 15 kts | 87° |
| 2026-04-25 09:03 | 41.26217 | 69.29702 | 1381 ft | 16 kts | 86° |
| 2026-04-25 09:04 | 41.26222 | 69.29852 | 1381 ft | 17 kts | 87° |
| 2026-04-25 09:04 | 41.26223 | 69.29956 | 1381 ft | 10 kts | 103° |
| 2026-04-25 09:04 | 41.26179 | 69.30029 | 1380 ft | 11 kts | 142° |
| 2026-04-25 09:04 | 41.26119 | 69.30088 | 1381 ft | 10 kts | 153° |
| 2026-04-25 09:05 | 41.26066 | 69.30055 | 1384 ft | 9 kts | 237° |
| 2026-04-25 09:05 | 41.26051 | 69.29976 | 1382 ft | 9 kts | 262° |
| 2026-04-25 09:05 | 41.26032 | 69.29794 | 1385 ft | 45 kts | 262° |
| 2026-04-25 09:05 | 41.25954 | 69.29092 | 1384 ft | 108 kts | 262° |
| 2026-04-25 09:06 | 41.25818 | 69.27851 | 1384 ft | 162 kts | 261° |
| 2026-04-25 09:06 | 41.25608 | 69.26267 | 1916 ft | 175 kts | 257° |
| 2026-04-25 09:06 | 41.25394 | 69.24718 | 2865 ft | 171 kts | 258° |
| 2026-04-25 09:06 | 41.25215 | 69.23073 | 3402 ft | 193 kts | 260° |
| 2026-04-25 09:07 | 41.25028 | 69.21157 | 3764 ft | 224 kts | 261° |
| 2026-04-25 09:07 | 41.24812 | 69.19043 | 4506 ft | 234 kts | 260° |
| 2026-04-25 09:07 | 41.24589 | 69.16922 | 5524 ft | 230 kts | 261° |
| 2026-04-25 09:07 | 41.24365 | 69.14821 | 6346 ft | 229 kts | 261° |
| 2026-04-25 09:08 | 41.24140 | 69.12724 | 6993 ft | 230 kts | 261° |
| 2026-04-25 09:08 | 41.23910 | 69.10616 | 7872 ft | 231 kts | 261° |
| 2026-04-25 09:08 | 41.23673 | 69.08504 | 8796 ft | 231 kts | 261° |
| 2026-04-25 09:08 | 41.23512 | 69.07079 | 9262 ft | 240 kts | 261° |
| 2026-04-25 09:09 | 41.23160 | 69.04026 | 10029 ft | 260 kts | 261° |
| 2026-04-25 09:09 | 41.22974 | 69.02420 | 10367 ft | 271 kts | 261° |
| 2026-04-25 09:09 | 41.22678 | 68.99873 | 10830 ft | 288 kts | 261° |
| 2026-04-25 09:09 | 41.22364 | 68.97170 | 11268 ft | 305 kts | 261° |
| 2026-04-25 09:10 | 41.22032 | 68.94308 | 11677 ft | 322 kts | 261° |
| 2026-04-25 09:10 | 41.21623 | 68.91327 | 12200 ft | 333 kts | 255° |
| 2026-04-25 09:10 | 41.20708 | 68.88479 | 12880 ft | 340 kts | 237° |
| 2026-04-25 09:10 | 41.19091 | 68.86162 | 13593 ft | 347 kts | 217° |
| 2026-04-25 09:11 | 41.14604 | 68.83549 | 14806 ft | 357 kts | 200° |
| 2026-04-25 09:11 | 41.12242 | 68.82495 | 15033 ft | 359 kts | 200° |
| 2026-04-25 09:11 | 41.09869 | 68.81434 | 15044 ft | 361 kts | 200° |
| 2026-04-25 09:12 | 41.07492 | 68.80359 | 15038 ft | 361 kts | 200° |
| 2026-04-25 09:12 | 41.05114 | 68.79273 | 15045 ft | 361 kts | 201° |
| 2026-04-25 09:12 | 41.02736 | 68.78185 | 15047 ft | 361 kts | 200° |
| 2026-04-25 09:12 | 41.00362 | 68.77096 | 15040 ft | 361 kts | 201° |
| 2026-04-25 09:13 | 40.97988 | 68.76007 | 15045 ft | 361 kts | 201° |
| 2026-04-25 09:13 | 40.95613 | 68.74917 | 15049 ft | 361 kts | 201° |
| 2026-04-25 09:13 | 40.93240 | 68.73828 | 15044 ft | 361 kts | 201° |
| 2026-04-25 09:13 | 40.90866 | 68.72739 | 15046 ft | 361 kts | 201° |
| 2026-04-25 09:14 | 40.88493 | 68.71652 | 15036 ft | 361 kts | 201° |
| 2026-04-25 09:14 | 40.86118 | 68.70563 | 15044 ft | 361 kts | 201° |
| 2026-04-25 09:14 | 40.83807 | 68.69288 | 15062 ft | 360 kts | 211° |
| 2026-04-25 09:14 | 40.81849 | 68.67252 | 15435 ft | 361 kts | 229° |
| 2026-04-25 09:15 | 40.80493 | 68.64478 | 16165 ft | 362 kts | 246° |
| 2026-04-25 09:15 | 40.79638 | 68.61386 | 16895 ft | 365 kts | 253° |
| 2026-04-25 09:15 | 40.78983 | 68.58140 | 17593 ft | 368 kts | 257° |
| 2026-04-25 09:15 | 40.78399 | 68.54835 | 18267 ft | 372 kts | 256° |
| 2026-04-25 09:16 | 40.77763 | 68.51506 | 18851 ft | 376 kts | 255° |
| 2026-04-25 09:16 | 40.77070 | 68.48170 | 19449 ft | 379 kts | 254° |
| 2026-04-25 09:16 | 40.76333 | 68.44822 | 20040 ft | 381 kts | 254° |
| 2026-04-25 09:16 | 40.75567 | 68.41461 | 20626 ft | 384 kts | 253° |
| 2026-04-25 09:17 | 40.73989 | 68.34674 | 21746 ft | 390 kts | 253° |
| 2026-04-25 09:17 | 40.73189 | 68.31242 | 22315 ft | 393 kts | 253° |
| 2026-04-25 09:17 | 40.72385 | 68.27787 | 22843 ft | 396 kts | 254° |
| 2026-04-25 09:18 | 40.71585 | 68.24308 | 23443 ft | 397 kts | 255° |
| 2026-04-25 09:18 | 40.70993 | 68.20740 | 23896 ft | 400 kts | 261° |
| 2026-04-25 09:18 | 40.70549 | 68.17109 | 24333 ft | 402 kts | 262° |
| 2026-04-25 09:18 | 40.70163 | 68.13453 | 24803 ft | 404 kts | 263° |
| 2026-04-25 09:19 | 40.69808 | 68.09778 | 25243 ft | 406 kts | 263° |
| 2026-04-25 09:19 | 40.69464 | 68.06078 | 25687 ft | 408 kts | 263° |
| 2026-04-25 09:19 | 40.69121 | 68.02365 | 26132 ft | 410 kts | 263° |
| 2026-04-25 09:19 | 40.68773 | 67.98631 | 26562 ft | 412 kts | 263° |
| 2026-04-25 09:20 | 40.68417 | 67.94879 | 26997 ft | 414 kts | 263° |
| 2026-04-25 09:20 | 40.68055 | 67.91107 | 27419 ft | 416 kts | 263° |
| 2026-04-25 09:20 | 40.67687 | 67.87323 | 27847 ft | 418 kts | 263° |
| 2026-04-25 09:20 | 40.67316 | 67.83518 | 28265 ft | 420 kts | 263° |
| 2026-04-25 09:21 | 40.66940 | 67.79693 | 28679 ft | 422 kts | 263° |
| 2026-04-25 09:21 | 40.66561 | 67.75846 | 29087 ft | 424 kts | 263° |
| 2026-04-25 09:21 | 40.66178 | 67.71988 | 29505 ft | 426 kts | 263° |
| 2026-04-25 09:21 | 40.65759 | 67.68112 | 29900 ft | 429 kts | 262° |
| 2026-04-25 09:22 | 40.65298 | 67.64228 | 30261 ft | 431 kts | 262° |
| 2026-04-25 09:22 | 40.64812 | 67.60323 | 30591 ft | 433 kts | 261° |
| 2026-04-25 09:22 | 40.64317 | 67.56402 | 30911 ft | 435 kts | 261° |
| 2026-04-25 09:22 | 40.63817 | 67.52456 | 31237 ft | 438 kts | 261° |
| 2026-04-25 09:23 | 40.63318 | 67.48499 | 31569 ft | 440 kts | 261° |
| 2026-04-25 09:23 | 40.62818 | 67.44521 | 31896 ft | 441 kts | 261° |
| 2026-04-25 09:23 | 40.62319 | 67.40538 | 32330 ft | 440 kts | 261° |
| 2026-04-25 09:23 | 40.61822 | 67.36569 | 32809 ft | 438 kts | 262° |
| 2026-04-25 09:24 | 40.61332 | 67.32670 | 33261 ft | 437 kts | 262° |
| 2026-04-25 09:24 | 40.60837 | 67.28731 | 33700 ft | 436 kts | 262° |
| 2026-04-25 09:24 | 40.60342 | 67.24804 | 34121 ft | 435 kts | 262° |
| 2026-04-25 09:24 | 40.59846 | 67.20883 | 34462 ft | 434 kts | 261° |
| 2026-04-25 09:25 | 40.59349 | 67.16971 | 34797 ft | 433 kts | 261° |
| 2026-04-25 09:25 | 40.58852 | 67.13063 | 35137 ft | 433 kts | 261° |
| 2026-04-25 09:25 | 40.58354 | 67.09167 | 35477 ft | 432 kts | 261° |
| 2026-04-25 09:25 | 40.57856 | 67.05275 | 35790 ft | 431 kts | 261° |
| 2026-04-25 09:26 | 40.57357 | 67.01389 | 36107 ft | 431 kts | 261° |
| 2026-04-25 09:26 | 40.56858 | 66.97505 | 36414 ft | 431 kts | 261° |
| 2026-04-25 09:26 | 40.56356 | 66.93622 | 36710 ft | 430 kts | 261° |
| 2026-04-25 09:26 | 40.55838 | 66.89749 | 37006 ft | 430 kts | 260° |
| 2026-04-25 09:27 | 40.55273 | 66.85900 | 37360 ft | 428 kts | 259° |
| 2026-04-25 09:27 | 40.54681 | 66.82072 | 37676 ft | 427 kts | 259° |
| 2026-04-25 09:27 | 40.54079 | 66.78252 | 37933 ft | 427 kts | 259° |
| 2026-04-25 09:27 | 40.53472 | 66.74426 | 38049 ft | 427 kts | 259° |
| 2026-04-25 09:28 | 40.52870 | 66.70622 | 38044 ft | 424 kts | 259° |
| 2026-04-25 09:28 | 40.51680 | 66.63051 | 38042 ft | 423 kts | 259° |
| 2026-04-25 09:29 | 40.50488 | 66.55493 | 38038 ft | 423 kts | 259° |
| 2026-04-25 09:29 | 40.49295 | 66.47934 | 38041 ft | 422 kts | 259° |
| 2026-04-25 09:30 | 40.48099 | 66.40385 | 38039 ft | 422 kts | 259° |
| 2026-04-25 09:30 | 40.46898 | 66.32842 | 38042 ft | 422 kts | 259° |
| 2026-04-25 09:31 | 40.45692 | 66.25296 | 38038 ft | 422 kts | 259° |
| 2026-04-25 09:31 | 40.44483 | 66.17761 | 38036 ft | 421 kts | 259° |
| 2026-04-25 09:32 | 40.43278 | 66.10236 | 38034 ft | 421 kts | 259° |
| 2026-04-25 09:32 | 40.42072 | 66.02714 | 38036 ft | 421 kts | 259° |
| 2026-04-25 09:33 | 40.40861 | 65.95190 | 38035 ft | 422 kts | 259° |
| 2026-04-25 09:33 | 40.39644 | 65.87671 | 38030 ft | 420 kts | 259° |
| 2026-04-25 09:34 | 40.38426 | 65.80184 | 38029 ft | 420 kts | 259° |
| 2026-04-25 09:34 | 40.37204 | 65.72699 | 38020 ft | 420 kts | 259° |
| 2026-04-25 09:35 | 40.35977 | 65.65221 | 38022 ft | 420 kts | 259° |
| 2026-04-25 09:35 | 40.34747 | 65.57745 | 38013 ft | 419 kts | 259° |
| 2026-04-25 09:36 | 40.33514 | 65.50289 | 38015 ft | 418 kts | 259° |
| 2026-04-25 09:36 | 40.32278 | 65.42841 | 38012 ft | 418 kts | 259° |
| 2026-04-25 09:37 | 40.31038 | 65.35393 | 38012 ft | 418 kts | 259° |
| 2026-04-25 09:37 | 40.29793 | 65.27946 | 38013 ft | 419 kts | 259° |
| 2026-04-25 09:38 | 40.28544 | 65.20505 | 38014 ft | 418 kts | 259° |
| 2026-04-25 09:38 | 40.27290 | 65.13071 | 38014 ft | 418 kts | 259° |
| 2026-04-25 09:39 | 40.26032 | 65.05643 | 38013 ft | 418 kts | 259° |
| 2026-04-25 09:39 | 40.24769 | 64.98218 | 38007 ft | 418 kts | 259° |
| 2026-04-25 09:40 | 40.22878 | 64.87155 | 37990 ft | 416 kts | 259° |
| 2026-04-25 09:40 | 40.21610 | 64.79776 | 37983 ft | 416 kts | 259° |
| 2026-04-25 09:41 | 40.20338 | 64.72401 | 37990 ft | 416 kts | 259° |
| 2026-04-25 09:41 | 40.19060 | 64.65023 | 37985 ft | 416 kts | 259° |
| 2026-04-25 09:42 | 40.17778 | 64.57651 | 37981 ft | 416 kts | 259° |
| 2026-04-25 09:42 | 40.16492 | 64.50281 | 37964 ft | 416 kts | 259° |
| 2026-04-25 09:43 | 40.15200 | 64.42916 | 37976 ft | 416 kts | 259° |
| 2026-04-25 09:43 | 40.13905 | 64.35559 | 37944 ft | 415 kts | 259° |
| 2026-04-25 09:44 | 40.12608 | 64.28221 | 37963 ft | 413 kts | 259° |
| 2026-04-25 09:44 | 40.11314 | 64.20926 | 37964 ft | 412 kts | 259° |
| 2026-04-25 09:45 | 40.10015 | 64.13632 | 37959 ft | 412 kts | 259° |
| 2026-04-25 09:45 | 40.08713 | 64.06347 | 37962 ft | 412 kts | 259° |
| 2026-04-25 09:46 | 40.07407 | 63.99075 | 37951 ft | 409 kts | 259° |
| 2026-04-25 09:46 | 40.06108 | 63.91866 | 37954 ft | 407 kts | 259° |
| 2026-04-25 09:47 | 40.04807 | 63.84670 | 37950 ft | 407 kts | 259° |
| 2026-04-25 09:47 | 40.03501 | 63.77474 | 37950 ft | 407 kts | 259° |
| 2026-04-25 09:48 | 40.02191 | 63.70290 | 37948 ft | 406 kts | 259° |
| 2026-04-25 09:48 | 40.00886 | 63.63151 | 37953 ft | 404 kts | 259° |
| 2026-04-25 09:49 | 39.99582 | 63.56032 | 37947 ft | 403 kts | 259° |
| 2026-04-25 09:49 | 39.98274 | 63.48916 | 37949 ft | 404 kts | 259° |
| 2026-04-25 09:50 | 39.96961 | 63.41805 | 37935 ft | 403 kts | 259° |
| 2026-04-25 09:50 | 39.95648 | 63.34722 | 37947 ft | 401 kts | 259° |
| 2026-04-25 09:51 | 39.94336 | 63.27664 | 37944 ft | 401 kts | 259° |
| 2026-04-25 09:51 | 39.93019 | 63.20606 | 37944 ft | 401 kts | 258° |
| 2026-04-25 09:52 | 39.91705 | 63.13594 | 37939 ft | 401 kts | 258° |
| 2026-04-25 09:52 | 39.90381 | 63.06552 | 37943 ft | 400 kts | 258° |
| 2026-04-25 09:53 | 39.89054 | 62.99520 | 37937 ft | 400 kts | 258° |
| 2026-04-25 09:53 | 39.87725 | 62.92499 | 37934 ft | 399 kts | 258° |
| 2026-04-25 09:54 | 39.86390 | 62.85478 | 37932 ft | 400 kts | 258° |
| 2026-04-25 09:54 | 39.85269 | 62.79598 | 37932 ft | 399 kts | 258° |
| 2026-04-25 09:55 | 39.83552 | 62.72729 | 37926 ft | 401 kts | 250° |
| 2026-04-25 09:55 | 39.81281 | 62.66092 | 37924 ft | 402 kts | 249° |
| 2026-04-25 09:56 | 39.78902 | 62.59504 | 37928 ft | 402 kts | 248° |
| 2026-04-25 09:56 | 39.76526 | 62.52971 | 37928 ft | 402 kts | 248° |
| 2026-04-25 09:57 | 39.74146 | 62.46405 | 37918 ft | 401 kts | 248° |
| 2026-04-25 09:57 | 39.71776 | 62.39861 | 37921 ft | 400 kts | 248° |
| 2026-04-25 09:58 | 39.69407 | 62.33326 | 37921 ft | 400 kts | 248° |
| 2026-04-25 09:58 | 39.67034 | 62.26792 | 37919 ft | 400 kts | 248° |
| 2026-04-25 09:59 | 39.64657 | 62.20266 | 37914 ft | 400 kts | 248° |
| 2026-04-25 09:59 | 39.62283 | 62.13764 | 37916 ft | 398 kts | 248° |
| 2026-04-25 10:00 | 39.59912 | 62.07286 | 37920 ft | 398 kts | 248° |
| 2026-04-25 10:00 | 39.57537 | 62.00806 | 37919 ft | 398 kts | 248° |
| 2026-04-25 10:01 | 39.55159 | 61.94336 | 37916 ft | 398 kts | 248° |
| 2026-04-25 10:01 | 39.52778 | 61.87868 | 37910 ft | 397 kts | 248° |
| 2026-04-25 10:02 | 39.50400 | 61.81429 | 37912 ft | 396 kts | 248° |
| 2026-04-25 10:02 | 39.48022 | 61.75002 | 37912 ft | 396 kts | 248° |
| 2026-04-25 10:03 | 39.45640 | 61.68574 | 37909 ft | 396 kts | 248° |
| 2026-04-25 10:03 | 39.43254 | 61.62153 | 37909 ft | 396 kts | 248° |
| 2026-04-25 10:04 | 39.40864 | 61.55734 | 37908 ft | 396 kts | 248° |
| 2026-04-25 10:04 | 39.38472 | 61.49324 | 37908 ft | 396 kts | 248° |
| 2026-04-25 10:05 | 39.36090 | 61.42954 | 37904 ft | 396 kts | 248° |
| 2026-04-25 10:05 | 39.33675 | 61.36507 | 37905 ft | 396 kts | 248° |
| 2026-04-25 10:06 | 39.31288 | 61.30151 | 37901 ft | 396 kts | 247° |
| 2026-04-25 10:06 | 39.28888 | 61.23775 | 37889 ft | 394 kts | 248° |
| 2026-04-25 10:07 | 39.26490 | 61.17417 | 37906 ft | 394 kts | 247° |
| 2026-04-25 10:07 | 39.24091 | 61.11070 | 37901 ft | 394 kts | 247° |
| 2026-04-25 10:08 | 39.21688 | 61.04724 | 37894 ft | 394 kts | 247° |
| 2026-04-25 10:08 | 39.19284 | 60.98389 | 37903 ft | 392 kts | 247° |
| 2026-04-25 10:09 | 39.16896 | 60.92077 | 37882 ft | 391 kts | 248° |
| 2026-04-25 10:09 | 39.14590 | 60.85728 | 37868 ft | 391 kts | 248° |
| 2026-04-25 10:10 | 39.13447 | 60.82537 | 37631 ft | 393 kts | 248° |
| 2026-04-25 10:10 | 39.12298 | 60.79330 | 37360 ft | 395 kts | 248° |
| 2026-04-25 10:10 | 39.11143 | 60.76112 | 37084 ft | 397 kts | 248° |
| 2026-04-25 10:10 | 39.09980 | 60.72883 | 36815 ft | 397 kts | 248° |
| 2026-04-25 10:11 | 39.08816 | 60.69664 | 36551 ft | 397 kts | 248° |
| 2026-04-25 10:11 | 39.07647 | 60.66440 | 36292 ft | 398 kts | 248° |
| 2026-04-25 10:11 | 39.06475 | 60.63210 | 36033 ft | 399 kts | 248° |
| 2026-04-25 10:11 | 39.05299 | 60.59974 | 35778 ft | 399 kts | 248° |
| 2026-04-25 10:12 | 39.04128 | 60.56758 | 35473 ft | 394 kts | 248° |
| 2026-04-25 10:12 | 39.02982 | 60.53615 | 35013 ft | 393 kts | 248° |
| 2026-04-25 10:12 | 39.00663 | 60.47258 | 34005 ft | 393 kts | 248° |
| 2026-04-25 10:13 | 38.99504 | 60.44083 | 33437 ft | 392 kts | 248° |
| 2026-04-25 10:13 | 38.98346 | 60.40913 | 32903 ft | 391 kts | 248° |
| 2026-04-25 10:13 | 38.97191 | 60.37756 | 32369 ft | 390 kts | 247° |
| 2026-04-25 10:13 | 38.96037 | 60.34607 | 31826 ft | 389 kts | 247° |
| 2026-04-25 10:14 | 38.94882 | 60.31458 | 31281 ft | 390 kts | 247° |
| 2026-04-25 10:14 | 38.93726 | 60.28308 | 30760 ft | 389 kts | 246° |
| 2026-04-25 10:14 | 38.92574 | 60.25176 | 30407 ft | 387 kts | 246° |
| 2026-04-25 10:14 | 38.91426 | 60.22057 | 30024 ft | 386 kts | 246° |
| 2026-04-25 10:15 | 38.90281 | 60.18949 | 29581 ft | 384 kts | 246° |
| 2026-04-25 10:15 | 38.89141 | 60.15858 | 29208 ft | 382 kts | 246° |
| 2026-04-25 10:15 | 38.88008 | 60.12789 | 28812 ft | 380 kts | 246° |
| 2026-04-25 10:15 | 38.86880 | 60.09735 | 28425 ft | 378 kts | 246° |
| 2026-04-25 10:16 | 38.85756 | 60.06697 | 28040 ft | 376 kts | 246° |
| 2026-04-25 10:16 | 38.84635 | 60.03671 | 27666 ft | 375 kts | 246° |
| 2026-04-25 10:16 | 38.83519 | 60.00658 | 27282 ft | 373 kts | 246° |
| 2026-04-25 10:16 | 38.82405 | 59.97657 | 26884 ft | 372 kts | 246° |
| 2026-04-25 10:17 | 38.81295 | 59.94669 | 26497 ft | 370 kts | 246° |
| 2026-04-25 10:17 | 38.80189 | 59.91693 | 26111 ft | 369 kts | 246° |
| 2026-04-25 10:17 | 38.79087 | 59.88730 | 25719 ft | 368 kts | 246° |
| 2026-04-25 10:17 | 38.77986 | 59.85775 | 25325 ft | 367 kts | 246° |
| 2026-04-25 10:18 | 38.76889 | 59.82834 | 24951 ft | 366 kts | 246° |
| 2026-04-25 10:18 | 38.75793 | 59.79896 | 24561 ft | 365 kts | 246° |
| 2026-04-25 10:18 | 38.74701 | 59.76972 | 24161 ft | 363 kts | 246° |
| 2026-04-25 10:18 | 38.73610 | 59.74055 | 23767 ft | 362 kts | 246° |
| 2026-04-25 10:19 | 38.72524 | 59.71154 | 23366 ft | 361 kts | 245° |
| 2026-04-25 10:19 | 38.71440 | 59.68260 | 22951 ft | 359 kts | 245° |
| 2026-04-25 10:19 | 38.70360 | 59.65382 | 22550 ft | 358 kts | 245° |
| 2026-04-25 10:19 | 38.69286 | 59.62519 | 22167 ft | 356 kts | 245° |
| 2026-04-25 10:20 | 38.68215 | 59.59669 | 21785 ft | 354 kts | 245° |
| 2026-04-25 10:20 | 38.67149 | 59.56835 | 21393 ft | 352 kts | 245° |
| 2026-04-25 10:20 | 38.66090 | 59.54021 | 21014 ft | 350 kts | 245° |
| 2026-04-25 10:20 | 38.65036 | 59.51223 | 20633 ft | 349 kts | 245° |
| 2026-04-25 10:21 | 38.63985 | 59.48437 | 20251 ft | 347 kts | 245° |
| 2026-04-25 10:21 | 38.62937 | 59.45662 | 19880 ft | 346 kts | 245° |
| 2026-04-25 10:21 | 38.61894 | 59.42900 | 19497 ft | 344 kts | 245° |
| 2026-04-25 10:21 | 38.60855 | 59.40153 | 19133 ft | 343 kts | 245° |
| 2026-04-25 10:22 | 38.59771 | 59.37446 | 18757 ft | 342 kts | 240° |
| 2026-04-25 10:22 | 38.58473 | 59.34911 | 18414 ft | 340 kts | 237° |
| 2026-04-25 10:22 | 38.57118 | 59.32434 | 18013 ft | 339 kts | 236° |
| 2026-04-25 10:22 | 38.55767 | 59.30016 | 17611 ft | 338 kts | 235° |
| 2026-04-25 10:23 | 38.54398 | 59.27584 | 17237 ft | 337 kts | 235° |
| 2026-04-25 10:23 | 38.53031 | 59.25165 | 16852 ft | 335 kts | 235° |
| 2026-04-25 10:23 | 38.51666 | 59.22758 | 16469 ft | 334 kts | 235° |
| 2026-04-25 10:23 | 38.50307 | 59.20362 | 16100 ft | 332 kts | 235° |
| 2026-04-25 10:24 | 38.48957 | 59.17979 | 15714 ft | 331 kts | 236° |
| 2026-04-25 10:24 | 38.47777 | 59.15476 | 15345 ft | 328 kts | 244° |
| 2026-04-25 10:24 | 38.46801 | 59.12847 | 14975 ft | 327 kts | 246° |
| 2026-04-25 10:24 | 38.45873 | 59.10209 | 14596 ft | 326 kts | 246° |
| 2026-04-25 10:25 | 38.44951 | 59.07577 | 14213 ft | 324 kts | 246° |
| 2026-04-25 10:25 | 38.44031 | 59.04959 | 13839 ft | 323 kts | 246° |
| 2026-04-25 10:25 | 38.43111 | 59.02349 | 13416 ft | 321 kts | 245° |
| 2026-04-25 10:25 | 38.42195 | 58.99758 | 13035 ft | 320 kts | 245° |
| 2026-04-25 10:26 | 38.41280 | 58.97175 | 12659 ft | 319 kts | 245° |
| 2026-04-25 10:26 | 38.40366 | 58.94596 | 12271 ft | 319 kts | 245° |
| 2026-04-25 10:26 | 38.39454 | 58.92026 | 11897 ft | 318 kts | 245° |
| 2026-04-25 10:26 | 38.38543 | 58.89464 | 11525 ft | 317 kts | 245° |
| 2026-04-25 10:27 | 38.37634 | 58.86907 | 11225 ft | 317 kts | 245° |
| 2026-04-25 10:27 | 38.36729 | 58.84367 | 10973 ft | 310 kts | 245° |
| 2026-04-25 10:27 | 38.35859 | 58.81924 | 10908 ft | 296 kts | 245° |
| 2026-04-25 10:27 | 38.35026 | 58.79586 | 10790 ft | 284 kts | 245° |
| 2026-04-25 10:28 | 38.34219 | 58.77326 | 10650 ft | 277 kts | 245° |
| 2026-04-25 10:28 | 38.33435 | 58.75129 | 10533 ft | 268 kts | 245° |
| 2026-04-25 10:28 | 38.32670 | 58.72988 | 10319 ft | 265 kts | 245° |
| 2026-04-25 10:28 | 38.31916 | 58.70882 | 10036 ft | 265 kts | 245° |
| 2026-04-25 10:29 | 38.31151 | 58.68744 | 9770 ft | 266 kts | 244° |
| 2026-04-25 10:29 | 38.30385 | 58.66608 | 9461 ft | 265 kts | 244° |
| 2026-04-25 10:29 | 38.29622 | 58.64479 | 9183 ft | 264 kts | 245° |
| 2026-04-25 10:29 | 38.28862 | 58.62360 | 8902 ft | 262 kts | 245° |
| 2026-04-25 10:30 | 38.28106 | 58.60255 | 8639 ft | 261 kts | 245° |
| 2026-04-25 10:30 | 38.27598 | 58.58841 | 8451 ft | 260 kts | 245° |
| 2026-04-25 10:30 | 38.26605 | 58.56078 | 8072 ft | 258 kts | 245° |
| 2026-04-25 10:30 | 38.25859 | 58.54006 | 7788 ft | 257 kts | 245° |
| 2026-04-25 10:31 | 38.25117 | 58.51945 | 7513 ft | 256 kts | 245° |
| 2026-04-25 10:31 | 38.24378 | 58.49893 | 7219 ft | 255 kts | 245° |
| 2026-04-25 10:31 | 38.23643 | 58.47855 | 6942 ft | 253 kts | 245° |
| 2026-04-25 10:31 | 38.22911 | 58.45823 | 6670 ft | 252 kts | 245° |
| 2026-04-25 10:32 | 38.22186 | 58.43815 | 6377 ft | 251 kts | 245° |
| 2026-04-25 10:32 | 38.21459 | 58.41802 | 6074 ft | 250 kts | 245° |
| 2026-04-25 10:32 | 38.20733 | 58.39793 | 5778 ft | 250 kts | 245° |
| 2026-04-25 10:32 | 38.20009 | 58.37791 | 5473 ft | 249 kts | 245° |
| 2026-04-25 10:33 | 38.19285 | 58.35789 | 5184 ft | 249 kts | 245° |
| 2026-04-25 10:33 | 38.18562 | 58.33793 | 4875 ft | 249 kts | 245° |
| 2026-04-25 10:33 | 38.17841 | 58.31801 | 4583 ft | 248 kts | 245° |
| 2026-04-25 10:33 | 38.17119 | 58.29812 | 4281 ft | 248 kts | 245° |
| 2026-04-25 10:34 | 38.16398 | 58.27830 | 3978 ft | 247 kts | 246° |
| 2026-04-25 10:34 | 38.15681 | 58.25855 | 3669 ft | 247 kts | 246° |
| 2026-04-25 10:34 | 38.14958 | 58.23870 | 3354 ft | 247 kts | 247° |
| 2026-04-25 10:34 | 38.14237 | 58.21885 | 3039 ft | 248 kts | 246° |
| 2026-04-25 10:35 | 38.13363 | 58.19994 | 2727 ft | 251 kts | 231° |
| 2026-04-25 10:35 | 38.11947 | 58.18632 | 2542 ft | 262 kts | 203° |
| 2026-04-25 10:35 | 38.10209 | 58.18283 | 2520 ft | 248 kts | 174° |
| 2026-04-25 10:35 | 38.08575 | 58.18704 | 2538 ft | 233 kts | 165° |
| 2026-04-25 10:36 | 38.07146 | 58.19496 | 2551 ft | 218 kts | 143° |
| 2026-04-25 10:36 | 38.06081 | 58.20764 | 2536 ft | 203 kts | 126° |
| 2026-04-25 10:36 | 38.05373 | 58.22233 | 2528 ft | 189 kts | 116° |
| 2026-04-25 10:36 | 38.04762 | 58.23661 | 2495 ft | 177 kts | 118° |
| 2026-04-25 10:37 | 38.04169 | 58.24978 | 2299 ft | 168 kts | 118° |
| 2026-04-25 10:37 | 38.03604 | 58.26242 | 2070 ft | 161 kts | 117° |
| 2026-04-25 10:37 | 38.03069 | 58.27448 | 1873 ft | 154 kts | 116° |
| 2026-04-25 10:37 | 38.02560 | 58.28597 | 1669 ft | 146 kts | 117° |
| 2026-04-25 10:38 | 38.02065 | 58.29712 | 1494 ft | 145 kts | 117° |
| 2026-04-25 10:38 | 38.01571 | 58.30819 | 1282 ft | 142 kts | 117° |
| 2026-04-25 10:38 | 38.01097 | 58.31904 | 1087 ft | 139 kts | 116° |
| 2026-04-25 10:38 | 38.00624 | 58.32972 | 941 ft | 140 kts | 116° |
| 2026-04-25 10:39 | 38.00148 | 58.34036 | 775 ft | 138 kts | 116° |
| 2026-04-25 10:39 | 37.99683 | 58.35076 | 675 ft | 134 kts | 117° |
| 2026-04-25 10:39 | 37.99308 | 58.35919 | 676 ft | 82 kts | 120° |
| 2026-04-25 10:39 | 37.99127 | 58.36327 | 675 ft | 28 kts | 119° |
| 2026-04-25 10:40 | 37.99032 | 58.36545 | 673 ft | 29 kts | 118° |
| 2026-04-25 10:40 | 37.98968 | 58.36687 | 674 ft | 14 kts | 120° |
| 2026-04-25 10:40 | 37.98915 | 58.36754 | 674 ft | 10 kts | 169° |
| 2026-04-25 10:40 | 37.98870 | 58.36739 | 674 ft | 11 kts | 208° |
| 2026-04-25 10:41 | 37.98775 | 58.36675 | 674 ft | 12 kts | 198° |
| 2026-04-25 10:41 | 37.98701 | 58.36650 | 674 ft | 10 kts | 197° |
| 2026-04-25 10:41 | 37.98638 | 58.36675 | 674 ft | 10 kts | 129° |
| 2026-04-25 10:41 | 37.98606 | 58.36746 | 674 ft | 9 kts | 120° |
| 2026-04-25 10:42 | 37.98586 | 58.36785 | 674 ft | 6 kts | 134° |
| 2026-04-25 10:42 | 37.98547 | 58.36773 | 674 ft | 5 kts | 200° |
| 2026-04-25 10:42 | 37.98522 | 58.36765 | 674 ft | 6 kts | 194° |
| 2026-04-25 10:42 | 37.98499 | 58.36757 | 674 ft | 0 kts | 194° |